createdAt,value
2022-09-02T00:00:22.755Z,0.00
2022-09-02T00:00:58.237Z,0.00
2022-09-02T00:01:33.534Z,0.00
2022-09-02T00:02:08.902Z,0.00
2022-09-02T00:02:43.923Z,0.00
2022-09-02T00:03:18.969Z,0.00
2022-09-02T00:03:54.173Z,0.00
2022-09-02T00:04:29.396Z,0.00
2022-09-02T00:05:04.683Z,0.00
2022-09-02T00:05:39.890Z,0.00
2022-09-02T00:06:14.976Z,0.00
2022-09-02T00:06:50.484Z,0.00
2022-09-02T00:07:25.667Z,0.00
2022-09-02T00:08:01.175Z,0.00
2022-09-02T00:08:36.207Z,0.00
2022-09-02T00:09:11.399Z,0.00
2022-09-02T00:09:46.590Z,0.00
2022-09-02T00:10:21.627Z,0.00
2022-09-02T00:10:56.711Z,0.00
2022-09-02T00:11:31.963Z,0.00
2022-09-02T00:12:07.240Z,0.00
2022-09-02T00:12:42.454Z,0.00
2022-09-02T00:13:17.682Z,0.00
2022-09-02T00:13:53.153Z,0.00
2022-09-02T00:14:28.356Z,0.00
2022-09-02T00:15:03.501Z,0.00
2022-09-02T00:15:38.994Z,0.00
2022-09-02T00:16:14.404Z,0.00
2022-09-02T00:16:49.532Z,0.00
2022-09-02T00:17:24.777Z,0.00
2022-09-02T00:17:59.843Z,0.00
2022-09-02T00:18:35.069Z,0.00
2022-09-02T00:19:10.664Z,0.00
2022-09-02T00:19:45.784Z,0.00
2022-09-02T00:20:20.969Z,0.00
2022-09-02T00:20:56.203Z,0.00
2022-09-02T00:21:31.394Z,0.00
2022-09-02T00:22:06.798Z,0.00
2022-09-02T00:22:41.792Z,0.00
2022-09-02T00:23:17.136Z,0.00
2022-09-02T00:23:52.321Z,0.00
2022-09-02T00:24:27.472Z,0.00
2022-09-02T00:25:02.959Z,0.00
2022-09-02T00:25:38.184Z,0.00
2022-09-02T00:26:13.630Z,0.00
2022-09-02T00:26:48.873Z,0.00
2022-09-02T00:27:24.166Z,0.00
2022-09-02T00:27:59.374Z,0.00
2022-09-02T00:28:34.578Z,0.00
2022-09-02T00:29:10.100Z,0.00
2022-09-02T00:29:45.383Z,0.00
2022-09-02T00:30:20.409Z,0.00
2022-09-02T00:30:55.428Z,0.00
2022-09-02T00:31:30.808Z,0.00
2022-09-02T00:32:05.991Z,0.00
2022-09-02T00:32:41.549Z,0.00
2022-09-02T00:33:16.653Z,0.00
2022-09-02T00:33:51.873Z,0.00
2022-09-02T00:34:27.062Z,0.00
2022-09-02T00:35:02.200Z,0.00
2022-09-02T00:35:37.215Z,0.00
2022-09-02T00:36:15.641Z,0.00
2022-09-02T00:36:51.050Z,0.00
2022-09-02T00:37:26.265Z,0.00
2022-09-02T00:38:01.667Z,0.00
2022-09-02T00:38:36.773Z,0.00
2022-09-02T00:39:12.072Z,0.00
2022-09-02T00:39:47.315Z,0.00
2022-09-02T00:40:22.635Z,0.00
2022-09-02T00:40:57.950Z,0.00
2022-09-02T00:41:33.242Z,0.00
2022-09-02T00:42:08.649Z,0.00
2022-09-02T00:42:43.657Z,0.00
2022-09-02T00:43:19.024Z,0.00
2022-09-02T00:43:54.440Z,0.00
2022-09-02T00:44:29.964Z,0.00
2022-09-02T00:45:05.353Z,0.00
2022-09-02T00:45:40.535Z,0.00
2022-09-02T00:46:15.753Z,0.00
2022-09-02T00:46:50.822Z,0.00
2022-09-02T00:47:26.210Z,0.00
2022-09-02T00:48:01.438Z,0.00
2022-09-02T00:48:36.590Z,0.00
2022-09-02T00:49:11.916Z,0.00
2022-09-02T00:49:47.047Z,0.00
2022-09-02T00:50:22.595Z,0.00
2022-09-02T00:50:58.237Z,0.00
2022-09-02T00:51:33.652Z,0.00
2022-09-02T00:52:08.676Z,0.00
2022-09-02T00:52:44.023Z,0.00
2022-09-02T00:53:19.281Z,0.00
2022-09-02T00:53:54.553Z,0.00
2022-09-02T00:54:29.667Z,0.00
2022-09-02T00:55:05.101Z,0.00
2022-09-02T00:55:40.190Z,0.00
2022-09-02T00:56:15.514Z,0.00
2022-09-02T00:56:50.725Z,0.00
2022-09-02T00:57:25.960Z,0.00
2022-09-02T00:58:01.264Z,0.00
2022-09-02T00:58:36.486Z,0.00
2022-09-02T00:59:11.887Z,0.00
2022-09-02T00:59:47.433Z,0.00
2022-09-02T01:00:22.529Z,0.00
2022-09-02T01:00:57.794Z,0.00
2022-09-02T01:01:33.045Z,0.00
2022-09-02T01:02:08.337Z,0.00
2022-09-02T01:02:43.542Z,0.00
2022-09-02T01:03:18.716Z,0.00
2022-09-02T01:03:53.782Z,0.00
2022-09-02T01:04:28.889Z,0.00
2022-09-02T01:05:04.125Z,0.00
2022-09-02T01:05:43.627Z,0.00
2022-09-02T01:06:14.536Z,0.00
2022-09-02T01:06:49.986Z,0.00
2022-09-02T01:07:25.187Z,0.00
2022-09-02T01:08:00.405Z,0.00
2022-09-02T01:08:35.599Z,0.00
2022-09-02T01:09:10.720Z,0.00
2022-09-02T01:09:45.906Z,0.00
2022-09-02T01:10:21.328Z,0.00
2022-09-02T01:10:57.040Z,0.00
2022-09-02T01:11:32.375Z,0.00
2022-09-02T01:12:07.629Z,0.00
2022-09-02T01:12:43.159Z,0.00
2022-09-02T01:13:18.414Z,0.00
2022-09-02T01:13:53.482Z,0.00
2022-09-02T01:14:28.799Z,0.00
2022-09-02T01:15:04.070Z,0.00
2022-09-02T01:15:39.379Z,0.00
2022-09-02T01:16:14.948Z,0.00
2022-09-02T01:16:50.445Z,0.00
2022-09-02T01:17:25.722Z,0.00
2022-09-02T01:18:01.065Z,0.00
2022-09-02T01:18:36.423Z,0.00
2022-09-02T01:19:11.611Z,0.00
2022-09-02T01:19:46.801Z,0.00
2022-09-02T01:20:25.603Z,0.00
2022-09-02T01:20:57.230Z,0.00
2022-09-02T01:21:32.415Z,0.00
2022-09-02T01:22:07.942Z,0.00
2022-09-02T01:22:43.309Z,0.00
2022-09-02T01:23:18.576Z,0.00
2022-09-02T01:23:54.066Z,0.00
2022-09-02T01:24:29.483Z,0.00
2022-09-02T01:25:04.903Z,0.00
2022-09-02T01:25:40.105Z,0.00
2022-09-02T01:26:15.528Z,0.00
2022-09-02T01:26:51.082Z,0.00
2022-09-02T01:27:26.304Z,0.00
2022-09-02T01:28:01.436Z,0.00
2022-09-02T01:28:36.777Z,0.00
2022-09-02T01:29:12.192Z,0.00
2022-09-02T01:29:47.313Z,0.00
2022-09-02T01:30:22.517Z,0.00
2022-09-02T01:30:57.527Z,0.00
2022-09-02T01:31:32.755Z,0.00
2022-09-02T01:32:08.087Z,0.00
2022-09-02T01:32:43.587Z,0.00
2022-09-02T01:33:18.854Z,0.00
2022-09-02T01:33:53.818Z,0.00
2022-09-02T01:34:29.060Z,0.00
2022-09-02T01:35:04.363Z,0.00
2022-09-02T01:35:39.908Z,0.00
2022-09-02T01:36:14.922Z,0.00
2022-09-02T01:36:50.292Z,0.00
2022-09-02T01:37:25.416Z,0.00
2022-09-02T01:38:00.619Z,0.00
2022-09-02T01:38:35.861Z,0.00
2022-09-02T01:39:11.195Z,0.00
2022-09-02T01:39:46.638Z,0.00
2022-09-02T01:40:21.885Z,0.00
2022-09-02T01:40:57.305Z,0.00
2022-09-02T01:41:32.622Z,0.00
2022-09-02T01:42:07.768Z,0.00
2022-09-02T01:42:43.191Z,0.00
2022-09-02T01:43:18.447Z,0.00
2022-09-02T01:43:53.646Z,0.00
2022-09-02T01:44:28.664Z,0.00
2022-09-02T01:45:04.009Z,0.00
2022-09-02T01:45:39.637Z,0.00
2022-09-02T01:46:15.078Z,0.00
2022-09-02T01:46:50.733Z,0.00
2022-09-02T01:47:26.093Z,0.00
2022-09-02T01:48:01.222Z,0.00
2022-09-02T01:48:36.431Z,0.00
2022-09-02T01:49:11.461Z,0.00
2022-09-02T01:49:46.896Z,0.00
2022-09-02T01:50:22.086Z,0.00
2022-09-02T01:50:57.104Z,0.00
2022-09-02T01:51:32.319Z,0.00
2022-09-02T01:52:07.355Z,0.00
2022-09-02T01:52:42.653Z,0.00
2022-09-02T01:53:17.941Z,0.00
2022-09-02T01:53:53.040Z,0.00
2022-09-02T01:54:28.180Z,0.00
2022-09-02T01:55:03.873Z,0.00
2022-09-02T01:55:39.192Z,0.00
2022-09-02T01:56:14.511Z,0.00
2022-09-02T01:56:49.914Z,0.00
2022-09-02T01:57:25.332Z,0.00
2022-09-02T01:58:00.723Z,0.00
2022-09-02T01:58:36.246Z,0.00
2022-09-02T01:59:11.751Z,0.00
2022-09-02T01:59:47.372Z,0.00
2022-09-02T02:00:22.497Z,0.00
2022-09-02T02:00:57.583Z,0.00
2022-09-02T02:01:32.717Z,0.00
2022-09-02T02:02:08.332Z,0.00
2022-09-02T02:02:43.458Z,0.00
2022-09-02T02:03:18.405Z,0.00
2022-09-02T02:03:53.722Z,0.00
2022-09-02T02:04:29.055Z,0.00
2022-09-02T02:05:04.201Z,0.00
2022-09-02T02:05:39.311Z,0.00
2022-09-02T02:06:14.336Z,0.00
2022-09-02T02:06:52.497Z,0.00
2022-09-02T02:07:24.793Z,0.00
2022-09-02T02:07:59.985Z,0.00
2022-09-02T02:08:35.434Z,0.00
2022-09-02T02:09:10.863Z,0.00
2022-09-02T02:09:45.985Z,0.00
2022-09-02T02:10:21.279Z,0.00
2022-09-02T02:10:56.597Z,0.00
2022-09-02T02:11:31.995Z,0.00
2022-09-02T02:12:06.999Z,0.00
2022-09-02T02:12:42.170Z,0.00
2022-09-02T02:13:17.469Z,0.00
2022-09-02T02:13:53.183Z,0.00
2022-09-02T02:14:28.815Z,0.00
2022-09-02T02:15:04.033Z,0.00
2022-09-02T02:15:39.001Z,0.00
2022-09-02T02:16:14.003Z,0.00
2022-09-02T02:16:49.186Z,0.00
2022-09-02T02:17:24.703Z,0.00
2022-09-02T02:17:59.927Z,0.00
2022-09-02T02:18:35.127Z,0.00
2022-09-02T02:19:10.448Z,0.00
2022-09-02T02:19:45.582Z,0.00
2022-09-02T02:20:21.005Z,0.00
2022-09-02T02:20:56.523Z,0.00
2022-09-02T02:21:31.844Z,0.00
2022-09-02T02:22:07.047Z,0.00
2022-09-02T02:22:42.148Z,0.00
2022-09-02T02:23:17.481Z,0.00
2022-09-02T02:23:52.764Z,0.00
2022-09-02T02:24:27.999Z,0.00
2022-09-02T02:25:03.118Z,0.00
2022-09-02T02:25:38.142Z,0.00
2022-09-02T02:26:13.585Z,0.00
2022-09-02T02:26:48.995Z,0.00
2022-09-02T02:27:24.116Z,0.00
2022-09-02T02:27:59.322Z,0.00
2022-09-02T02:28:34.751Z,0.00
2022-09-02T02:29:10.073Z,0.00
2022-09-02T02:29:45.328Z,0.00
2022-09-02T02:30:20.838Z,0.00
2022-09-02T02:30:56.647Z,0.00
2022-09-02T02:31:31.889Z,0.00
2022-09-02T02:32:07.084Z,0.00
2022-09-02T02:32:42.300Z,0.00
2022-09-02T02:33:17.694Z,0.00
2022-09-02T02:33:52.854Z,0.00
2022-09-02T02:34:27.971Z,0.00
2022-09-02T02:35:03.274Z,0.00
2022-09-02T02:35:38.486Z,0.00
2022-09-02T02:36:13.630Z,0.00
2022-09-02T02:36:48.863Z,0.00
2022-09-02T02:37:25.659Z,0.00
2022-09-02T02:37:59.645Z,0.00
2022-09-02T02:38:34.841Z,0.00
2022-09-02T02:39:09.981Z,0.00
2022-09-02T02:39:45.193Z,0.00
2022-09-02T02:40:20.454Z,0.00
2022-09-02T02:40:55.430Z,0.00
2022-09-02T02:41:30.765Z,0.00
2022-09-02T02:42:06.200Z,0.00
2022-09-02T02:42:41.525Z,0.00
2022-09-02T02:43:17.023Z,0.00
2022-09-02T02:43:52.339Z,0.00
2022-09-02T02:44:27.378Z,0.00
2022-09-02T02:45:02.381Z,0.00
2022-09-02T02:45:37.547Z,0.00
2022-09-02T02:46:12.883Z,0.00
2022-09-02T02:46:48.217Z,0.00
2022-09-02T02:47:23.301Z,0.00
2022-09-02T02:47:58.414Z,0.00
2022-09-02T02:48:33.867Z,0.00
2022-09-02T02:49:09.102Z,0.00
2022-09-02T02:49:44.314Z,0.00
2022-09-02T02:50:19.420Z,0.00
2022-09-02T02:50:54.937Z,0.00
2022-09-02T02:51:30.087Z,0.00
2022-09-02T02:52:05.288Z,0.00
2022-09-02T02:52:40.552Z,0.00
2022-09-02T02:53:15.973Z,0.00
2022-09-02T02:53:53.022Z,0.00
2022-09-02T02:54:34.866Z,0.00
2022-09-02T02:55:01.534Z,0.00
2022-09-02T02:55:36.862Z,0.00
2022-09-02T02:56:12.170Z,0.00
2022-09-02T02:56:47.290Z,0.00
2022-09-02T02:57:22.886Z,0.00
2022-09-02T02:57:58.147Z,0.00
2022-09-02T02:58:33.250Z,0.00
2022-09-02T02:59:08.551Z,0.00
2022-09-02T02:59:43.762Z,0.00
2022-09-02T03:00:19.070Z,0.00
2022-09-02T03:00:54.193Z,0.00
2022-09-02T03:01:29.006Z,0.00
2022-09-02T03:02:04.243Z,0.00
2022-09-02T03:02:39.488Z,0.00
2022-09-02T03:03:15.004Z,0.00
2022-09-02T03:03:50.320Z,0.00
2022-09-02T03:04:25.725Z,0.00
2022-09-02T03:05:00.845Z,0.00
2022-09-02T03:05:36.134Z,0.00
2022-09-02T03:06:11.766Z,0.00
2022-09-02T03:06:46.973Z,0.00
2022-09-02T03:07:22.171Z,0.00
2022-09-02T03:07:57.375Z,0.00
2022-09-02T03:08:32.509Z,0.00
2022-09-02T03:09:07.649Z,0.00
2022-09-02T03:09:42.793Z,0.00
2022-09-02T03:10:18.232Z,0.00
2022-09-02T03:10:53.366Z,0.00
2022-09-02T03:11:28.422Z,0.00
2022-09-02T03:12:03.814Z,0.00
2022-09-02T03:12:38.939Z,0.00
2022-09-02T03:13:14.312Z,0.00
2022-09-02T03:13:49.802Z,0.00
2022-09-02T03:14:25.282Z,0.00
2022-09-02T03:15:00.622Z,0.00
2022-09-02T03:15:35.929Z,0.00
2022-09-02T03:16:11.202Z,0.00
2022-09-02T03:16:46.271Z,0.00
2022-09-02T03:17:21.590Z,0.00
2022-09-02T03:17:56.728Z,0.00
2022-09-02T03:18:31.821Z,0.00
2022-09-02T03:19:07.361Z,0.00
2022-09-02T03:19:42.371Z,0.00
2022-09-02T03:20:17.795Z,0.00
2022-09-02T03:20:52.893Z,0.00
2022-09-02T03:21:28.004Z,0.00
2022-09-02T03:22:03.243Z,0.00
2022-09-02T03:22:38.447Z,0.00
2022-09-02T03:23:13.917Z,0.00
2022-09-02T03:23:49.061Z,0.00
2022-09-02T03:24:24.188Z,0.00
2022-09-02T03:24:59.401Z,0.00
2022-09-02T03:25:36.068Z,0.00
2022-09-02T03:26:10.142Z,0.00
2022-09-02T03:26:45.253Z,0.00
2022-09-02T03:27:20.280Z,0.00
2022-09-02T03:27:55.524Z,0.00
2022-09-02T03:28:30.735Z,0.00
2022-09-02T03:29:05.844Z,0.00
2022-09-02T03:29:41.178Z,0.00
2022-09-02T03:30:16.701Z,0.00
2022-09-02T03:30:52.386Z,0.00
2022-09-02T03:31:27.796Z,0.00
2022-09-02T03:32:02.993Z,0.00
2022-09-02T03:32:38.095Z,0.00
2022-09-02T03:33:13.503Z,0.00
2022-09-02T03:33:48.913Z,0.00
2022-09-02T03:34:24.488Z,0.00
2022-09-02T03:34:59.710Z,0.00
2022-09-02T03:35:35.210Z,0.00
2022-09-02T03:36:10.614Z,0.00
2022-09-02T03:36:45.951Z,0.00
2022-09-02T03:37:21.139Z,0.00
2022-09-02T03:37:56.461Z,0.00
2022-09-02T03:38:31.672Z,0.00
2022-09-02T03:39:09.943Z,0.00
2022-09-02T03:39:42.138Z,0.00
2022-09-02T03:40:17.546Z,0.00
2022-09-02T03:40:53.146Z,0.00
2022-09-02T03:41:28.414Z,0.00
2022-09-02T03:42:03.539Z,0.00
2022-09-02T03:42:38.854Z,0.00
2022-09-02T03:43:14.351Z,0.00
2022-09-02T03:43:49.602Z,0.00
2022-09-02T03:44:24.723Z,0.00
2022-09-02T03:45:00.125Z,0.00
2022-09-02T03:45:35.393Z,0.00
2022-09-02T03:46:10.568Z,0.00
2022-09-02T03:46:45.946Z,0.00
2022-09-02T03:47:21.271Z,0.00
2022-09-02T03:47:56.682Z,0.00
2022-09-02T03:48:31.919Z,0.00
2022-09-02T03:49:07.162Z,0.00
2022-09-02T03:49:43.757Z,0.00
2022-09-02T03:50:18.240Z,0.00
2022-09-02T03:50:53.648Z,0.00
2022-09-02T03:51:28.565Z,0.00
2022-09-02T03:52:03.994Z,0.00
2022-09-02T03:52:39.311Z,0.00
2022-09-02T03:53:19.348Z,0.00
2022-09-02T03:53:49.830Z,0.00
2022-09-02T03:54:25.143Z,0.00
2022-09-02T03:55:00.354Z,0.00
2022-09-02T03:55:35.795Z,0.00
2022-09-02T03:56:11.185Z,0.00
2022-09-02T03:56:46.365Z,0.00
2022-09-02T03:57:21.475Z,0.00
2022-09-02T03:57:56.680Z,0.00
2022-09-02T03:58:32.012Z,0.00
2022-09-02T03:59:07.323Z,0.00
2022-09-02T03:59:42.542Z,0.00
2022-09-02T04:00:17.875Z,0.00
2022-09-02T04:00:53.506Z,0.00
2022-09-02T04:01:34.398Z,0.00
2022-09-02T04:02:04.309Z,0.00
2022-09-02T04:02:39.377Z,0.00
2022-09-02T04:03:14.423Z,0.00
2022-09-02T04:03:49.468Z,0.00
2022-09-02T04:04:25.082Z,0.00
2022-09-02T04:05:00.497Z,0.00
2022-09-02T04:05:35.837Z,0.00
2022-09-02T04:06:11.163Z,0.00
2022-09-02T04:06:46.460Z,0.00
2022-09-02T04:07:21.667Z,0.00
2022-09-02T04:07:56.870Z,0.00
2022-09-02T04:08:32.189Z,0.00
2022-09-02T04:09:07.619Z,0.00
2022-09-02T04:09:46.707Z,0.00
2022-09-02T04:10:19.471Z,0.00
2022-09-02T04:10:54.824Z,0.00
2022-09-02T04:11:30.042Z,0.00
2022-09-02T04:12:05.558Z,0.00
2022-09-02T04:12:40.675Z,0.00
2022-09-02T04:13:15.994Z,0.00
2022-09-02T04:13:51.304Z,0.00
2022-09-02T04:14:33.526Z,0.00
2022-09-02T04:15:09.391Z,4.00
2022-09-02T04:15:44.962Z,4.00
2022-09-02T04:16:20.293Z,0.00
2022-09-02T04:16:55.862Z,0.00
2022-09-02T04:17:31.125Z,0.00
2022-09-02T04:18:06.574Z,0.00
2022-09-02T04:18:41.903Z,4.00
2022-09-02T04:19:17.410Z,4.00
2022-09-02T04:19:52.739Z,0.00
2022-09-02T04:20:28.049Z,4.00
2022-09-02T04:21:03.774Z,4.00
2022-09-02T04:21:39.035Z,4.00
2022-09-02T04:22:14.246Z,4.00
2022-09-02T04:22:49.564Z,4.00
2022-09-02T04:23:24.568Z,4.00
2022-09-02T04:23:59.823Z,4.00
2022-09-02T04:24:35.057Z,4.00
2022-09-02T04:25:10.291Z,8.00
2022-09-02T04:25:45.499Z,4.00
2022-09-02T04:26:20.726Z,8.00
2022-09-02T04:26:58.493Z,8.00
2022-09-02T04:27:31.443Z,8.00
2022-09-02T04:28:07.200Z,8.00
2022-09-02T04:28:42.498Z,12.00
2022-09-02T04:29:17.639Z,8.00
2022-09-02T04:29:52.855Z,12.00
2022-09-02T04:30:28.286Z,12.00
2022-09-02T04:31:04.089Z,16.00
2022-09-02T04:31:39.397Z,16.00
2022-09-02T04:32:14.462Z,16.00
2022-09-02T04:32:49.684Z,16.00
2022-09-02T04:33:24.929Z,16.00
2022-09-02T04:34:00.319Z,20.00
2022-09-02T04:34:35.730Z,20.00
2022-09-02T04:35:10.856Z,20.00
2022-09-02T04:35:46.192Z,24.00
2022-09-02T04:36:21.522Z,28.00
2022-09-02T04:36:57.144Z,28.00
2022-09-02T04:37:32.594Z,28.00
2022-09-02T04:38:07.611Z,32.00
2022-09-02T04:38:43.018Z,32.00
2022-09-02T04:39:18.239Z,32.00
2022-09-02T04:39:53.608Z,36.00
2022-09-02T04:40:28.569Z,36.00
2022-09-02T04:41:03.859Z,40.00
2022-09-02T04:41:39.196Z,44.00
2022-09-02T04:42:14.519Z,44.00
2022-09-02T04:42:49.577Z,48.00
2022-09-02T04:43:24.796Z,48.00
2022-09-02T04:44:00.128Z,52.00
2022-09-02T04:44:35.572Z,52.00
2022-09-02T04:45:10.910Z,56.00
2022-09-02T04:45:46.237Z,60.00
2022-09-02T04:46:29.739Z,64.00
2022-09-02T04:46:56.511Z,64.00
2022-09-02T04:47:31.834Z,68.00
2022-09-02T04:48:06.983Z,68.00
2022-09-02T04:48:42.135Z,72.00
2022-09-02T04:49:17.645Z,76.00
2022-09-02T04:49:53.074Z,80.00
2022-09-02T04:50:28.377Z,84.00
2022-09-02T04:51:03.482Z,88.00
2022-09-02T04:51:38.900Z,92.00
2022-09-02T04:52:14.131Z,96.00
2022-09-02T04:52:49.660Z,100.00
2022-09-02T04:53:25.102Z,100.00
2022-09-02T04:54:00.531Z,108.00
2022-09-02T04:54:35.646Z,112.00
2022-09-02T04:55:10.868Z,116.00
2022-09-02T04:55:46.191Z,120.00
2022-09-02T04:56:21.108Z,124.00
2022-09-02T04:56:56.349Z,128.00
2022-09-02T04:57:31.645Z,132.00
2022-09-02T04:58:07.028Z,140.00
2022-09-02T04:58:42.393Z,144.00
2022-09-02T04:59:17.835Z,148.00
2022-09-02T04:59:53.152Z,152.00
2022-09-02T05:00:28.198Z,156.00
2022-09-02T05:01:03.622Z,164.00
2022-09-02T05:01:39.183Z,168.00
2022-09-02T05:02:14.732Z,172.00
2022-09-02T05:02:49.761Z,176.00
2022-09-02T05:03:25.112Z,184.00
2022-09-02T05:04:00.503Z,188.00
2022-09-02T05:04:35.586Z,196.00
2022-09-02T05:05:10.812Z,200.00
2022-09-02T05:05:46.015Z,204.00
2022-09-02T05:06:20.937Z,208.00
2022-09-02T05:06:56.162Z,212.00
2022-09-02T05:07:31.574Z,216.00
2022-09-02T05:08:06.690Z,224.00
2022-09-02T05:08:41.897Z,228.00
2022-09-02T05:09:17.262Z,232.00
2022-09-02T05:09:52.474Z,240.00
2022-09-02T05:10:27.992Z,244.00
2022-09-02T05:11:03.208Z,248.00
2022-09-02T05:11:38.320Z,252.00
2022-09-02T05:12:13.646Z,260.00
2022-09-02T05:12:48.960Z,264.00
2022-09-02T05:13:24.597Z,272.00
2022-09-02T05:13:59.930Z,276.00
2022-09-02T05:14:35.348Z,284.00
2022-09-02T05:15:10.997Z,288.00
2022-09-02T05:15:46.139Z,296.00
2022-09-02T05:16:21.575Z,300.00
2022-09-02T05:16:56.548Z,304.00
2022-09-02T05:17:31.894Z,312.00
2022-09-02T05:18:07.420Z,316.00
2022-09-02T05:18:42.766Z,324.00
2022-09-02T05:19:18.295Z,328.00
2022-09-02T05:19:53.853Z,336.00
2022-09-02T05:20:28.956Z,344.00
2022-09-02T05:21:04.200Z,348.00
2022-09-02T05:21:39.623Z,356.00
2022-09-02T05:22:14.844Z,364.00
2022-09-02T05:22:49.861Z,368.00
2022-09-02T05:23:25.278Z,380.00
2022-09-02T05:24:00.805Z,384.00
2022-09-02T05:24:36.027Z,392.00
2022-09-02T05:25:11.068Z,404.00
2022-09-02T05:25:46.594Z,408.00
2022-09-02T05:26:22.044Z,420.00
2022-09-02T05:26:57.158Z,424.00
2022-09-02T05:27:32.372Z,432.00
2022-09-02T05:28:07.665Z,440.00
2022-09-02T05:28:42.815Z,452.00
2022-09-02T05:29:18.045Z,456.00
2022-09-02T05:29:53.164Z,464.00
2022-09-02T05:30:28.691Z,468.00
2022-09-02T05:31:03.728Z,476.00
2022-09-02T05:31:39.191Z,480.00
2022-09-02T05:32:14.617Z,488.00
2022-09-02T05:32:49.953Z,496.00
2022-09-02T05:33:25.285Z,504.00
2022-09-02T05:34:00.390Z,512.00
2022-09-02T05:34:35.530Z,520.00
2022-09-02T05:35:10.657Z,528.00
2022-09-02T05:35:45.957Z,536.00
2022-09-02T05:36:21.103Z,544.00
2022-09-02T05:36:56.412Z,556.00
2022-09-02T05:37:31.964Z,560.00
2022-09-02T05:38:07.322Z,572.00
2022-09-02T05:38:42.856Z,584.00
2022-09-02T05:39:18.085Z,588.00
2022-09-02T05:39:53.628Z,600.00
2022-09-02T05:40:29.004Z,612.00
2022-09-02T05:41:04.211Z,620.00
2022-09-02T05:41:39.271Z,632.00
2022-09-02T05:42:14.575Z,644.00
2022-09-02T05:42:49.886Z,656.00
2022-09-02T05:43:25.115Z,668.00
2022-09-02T05:44:01.403Z,676.00
2022-09-02T05:44:35.547Z,684.00
2022-09-02T05:45:10.935Z,692.00
2022-09-02T05:45:46.133Z,700.00
2022-09-02T05:46:21.396Z,712.00
2022-09-02T05:46:56.687Z,724.00
2022-09-02T05:47:31.837Z,736.00
2022-09-02T05:48:06.845Z,744.00
2022-09-02T05:48:42.410Z,756.00
2022-09-02T05:49:18.012Z,768.00
2022-09-02T05:49:53.634Z,780.00
2022-09-02T05:50:31.787Z,796.00
2022-09-02T05:51:04.164Z,808.00
2022-09-02T05:51:39.402Z,820.00
2022-09-02T05:52:14.818Z,836.00
2022-09-02T05:52:50.252Z,852.00
2022-09-02T05:53:25.739Z,868.00
2022-09-02T05:54:00.859Z,880.00
2022-09-02T05:54:36.281Z,896.00
2022-09-02T05:55:11.405Z,916.00
2022-09-02T05:55:46.628Z,932.00
2022-09-02T05:56:22.247Z,952.00
2022-09-02T05:56:57.659Z,968.00
2022-09-02T05:57:32.947Z,976.00
2022-09-02T05:58:08.235Z,988.00
2022-09-02T05:58:43.553Z,1000.00
2022-09-02T05:59:18.955Z,1016.00
2022-09-02T05:59:54.174Z,1032.00
2022-09-02T06:00:29.395Z,1048.00
2022-09-02T06:01:04.925Z,1068.00
2022-09-02T06:01:40.295Z,1088.00
2022-09-02T06:02:15.653Z,1112.00
2022-09-02T06:02:50.795Z,1136.00
2022-09-02T06:03:26.056Z,1160.00
2022-09-02T06:04:01.270Z,1176.00
2022-09-02T06:04:36.592Z,1200.00
2022-09-02T06:05:11.933Z,1220.00
2022-09-02T06:05:47.243Z,1232.00
2022-09-02T06:06:22.551Z,1256.00
2022-09-02T06:06:57.779Z,1272.00
2022-09-02T06:07:33.116Z,1292.00
2022-09-02T06:08:08.623Z,1312.00
2022-09-02T06:08:43.840Z,1332.00
2022-09-02T06:09:19.132Z,1352.00
2022-09-02T06:09:54.370Z,1364.00
2022-09-02T06:10:29.715Z,1380.00
2022-09-02T06:11:05.024Z,1392.00
2022-09-02T06:11:40.712Z,1412.00
2022-09-02T06:12:16.410Z,1424.00
2022-09-02T06:12:51.633Z,1444.00
2022-09-02T06:13:27.085Z,1456.00
2022-09-02T06:14:02.734Z,1472.00
2022-09-02T06:14:38.571Z,1484.00
2022-09-02T06:15:14.770Z,1496.00
2022-09-02T06:15:50.027Z,1504.00
2022-09-02T06:16:25.321Z,1520.00
2022-09-02T06:17:00.701Z,1524.00
2022-09-02T06:17:36.023Z,1536.00
2022-09-02T06:18:11.853Z,1552.00
2022-09-02T06:18:47.403Z,1564.00
2022-09-02T06:19:22.873Z,1584.00
2022-09-02T06:19:58.087Z,1596.00
2022-09-02T06:20:33.429Z,1616.00
2022-09-02T06:21:08.751Z,1636.00
2022-09-02T06:21:44.283Z,1656.00
2022-09-02T06:22:19.497Z,1680.00
2022-09-02T06:22:54.511Z,1712.00
2022-09-02T06:23:29.639Z,1744.00
2022-09-02T06:24:04.774Z,1776.00
2022-09-02T06:24:39.973Z,1812.00
2022-09-02T06:25:15.112Z,1848.00
2022-09-02T06:25:50.452Z,1876.00
2022-09-02T06:26:25.917Z,1900.00
2022-09-02T06:27:01.142Z,1928.00
2022-09-02T06:27:36.376Z,1960.00
2022-09-02T06:28:11.682Z,1984.00
2022-09-02T06:28:47.241Z,2008.00
2022-09-02T06:29:22.548Z,2032.00
2022-09-02T06:29:57.952Z,2048.00
2022-09-02T06:30:33.216Z,2064.00
2022-09-02T06:31:08.625Z,2084.00
2022-09-02T06:31:43.982Z,2104.00
2022-09-02T06:32:19.396Z,2124.00
2022-09-02T06:32:54.622Z,2140.00
2022-09-02T06:33:29.836Z,2156.00
2022-09-02T06:34:05.354Z,2172.00
2022-09-02T06:34:40.773Z,2192.00
2022-09-02T06:35:16.270Z,2196.00
2022-09-02T06:35:51.793Z,2212.00
2022-09-02T06:36:28.225Z,2228.00
2022-09-02T06:37:02.008Z,2244.00
2022-09-02T06:37:37.295Z,2256.00
2022-09-02T06:38:12.521Z,2276.00
2022-09-02T06:38:47.535Z,2292.00
2022-09-02T06:39:22.424Z,2304.00
2022-09-02T06:39:57.927Z,2324.00
2022-09-02T06:40:33.232Z,2340.00
2022-09-02T06:41:08.477Z,2352.00
2022-09-02T06:41:43.613Z,2368.00
2022-09-02T06:42:18.916Z,2380.00
2022-09-02T06:42:54.142Z,2392.00
2022-09-02T06:43:29.133Z,2412.00
2022-09-02T06:44:07.046Z,2432.00
2022-09-02T06:44:40.076Z,2452.00
2022-09-02T06:45:16.361Z,2472.00
2022-09-02T06:45:52.107Z,2488.00
2022-09-02T06:46:27.287Z,2500.00
2022-09-02T06:47:02.566Z,2516.00
2022-09-02T06:47:38.164Z,2528.00
2022-09-02T06:48:13.699Z,2540.00
2022-09-02T06:48:49.003Z,2552.00
2022-09-02T06:49:24.565Z,2568.00
2022-09-02T06:50:00.218Z,2580.00
2022-09-02T06:50:35.413Z,2600.00
2022-09-02T06:51:10.731Z,2616.00
2022-09-02T06:51:45.737Z,2632.00
2022-09-02T06:52:20.849Z,2656.00
2022-09-02T06:52:56.154Z,2672.00
2022-09-02T06:53:31.679Z,2700.00
2022-09-02T06:54:07.082Z,2720.00
2022-09-02T06:54:42.627Z,2748.00
2022-09-02T06:55:18.073Z,2768.00
2022-09-02T06:55:53.564Z,2796.00
2022-09-02T06:56:28.668Z,2808.00
2022-09-02T06:57:04.179Z,2832.00
2022-09-02T06:57:39.310Z,2848.00
2022-09-02T06:58:14.629Z,2868.00
2022-09-02T06:58:49.838Z,2876.00
2022-09-02T06:59:24.948Z,2896.00
2022-09-02T07:00:02.405Z,2904.00
2022-09-02T07:00:36.243Z,2920.00
2022-09-02T07:01:11.744Z,2932.00
2022-09-02T07:01:46.939Z,2952.00
2022-09-02T07:02:21.957Z,2960.00
2022-09-02T07:02:57.271Z,2976.00
2022-09-02T07:03:32.703Z,2980.00
2022-09-02T07:04:07.901Z,2988.00
2022-09-02T07:04:43.153Z,3004.00
2022-09-02T07:05:18.390Z,3008.00
2022-09-02T07:05:53.690Z,3028.00
2022-09-02T07:06:28.913Z,3040.00
2022-09-02T07:07:04.102Z,3052.00
2022-09-02T07:07:39.115Z,3072.00
2022-09-02T07:08:14.217Z,3104.00
2022-09-02T07:08:49.436Z,3108.00
2022-09-02T07:09:24.754Z,3128.00
2022-09-02T07:10:00.314Z,3148.00
2022-09-02T07:10:35.728Z,3160.00
2022-09-02T07:11:11.043Z,3180.00
2022-09-02T07:11:46.077Z,3196.00
2022-09-02T07:12:21.477Z,3220.00
2022-09-02T07:12:56.693Z,3240.00
2022-09-02T07:13:31.896Z,3272.00
2022-09-02T07:14:07.318Z,3296.00
2022-09-02T07:14:42.560Z,3324.00
2022-09-02T07:15:17.750Z,3348.00
2022-09-02T07:15:53.000Z,3376.00
2022-09-02T07:16:28.258Z,3396.00
2022-09-02T07:17:03.646Z,3416.00
2022-09-02T07:17:39.142Z,3448.00
2022-09-02T07:18:14.344Z,3472.00
2022-09-02T07:18:49.565Z,3488.00
2022-09-02T07:19:24.965Z,3512.00
2022-09-02T07:20:00.434Z,3528.00
2022-09-02T07:20:35.805Z,3548.00
2022-09-02T07:21:11.300Z,3568.00
2022-09-02T07:21:46.812Z,3572.00
2022-09-02T07:22:22.023Z,3592.00
2022-09-02T07:22:57.348Z,3604.00
2022-09-02T07:23:32.762Z,3600.00
2022-09-02T07:24:08.179Z,3628.00
2022-09-02T07:24:43.411Z,3648.00
2022-09-02T07:25:19.150Z,3672.00
2022-09-02T07:25:54.662Z,3696.00
2022-09-02T07:26:29.975Z,3716.00
2022-09-02T07:27:05.182Z,3740.00
2022-09-02T07:27:40.505Z,3756.00
2022-09-02T07:28:15.482Z,3776.00
2022-09-02T07:28:50.808Z,3792.00
2022-09-02T07:29:25.906Z,3800.00
2022-09-02T07:30:01.247Z,3804.00
2022-09-02T07:30:36.747Z,3824.00
2022-09-02T07:31:12.156Z,3832.00
2022-09-02T07:31:47.425Z,3840.00
2022-09-02T07:32:22.898Z,3848.00
2022-09-02T07:32:58.198Z,3872.00
2022-09-02T07:33:33.813Z,3880.00
2022-09-02T07:34:09.246Z,3908.00
2022-09-02T07:34:44.774Z,3936.00
2022-09-02T07:35:20.026Z,3956.00